sensor_id;sensor_type;location;lat;lon;timestamp;P1;durP1;ratioP1;P2;durP2;ratioP2
7829;SDS011;3960;51.86894000;5.39848000;2022-08-11T00:01:16;2.75;;;2.20;;
7829;SDS011;3960;51.86894000;5.39848000;2022-08-11T00:04:06;6.07;;;2.17;;
7829;SDS011;3960;51.86894000;5.39848000;2022-08-11T00:06:31;4.57;;;1.88;;
7829;SDS011;3960;51.86894000;5.39848000;2022-08-11T00:08:59;7.28;;;2.03;;
7829;SDS011;3960;51.86894000;5.39848000;2022-08-11T00:11:44;8.40;;;2.13;;
7829;SDS011;3960;51.86894000;5.39848000;2022-08-11T00:14:13;6.60;;;2.10;;
7829;SDS011;3960;51.86894000;5.39848000;2022-08-11T00:19:27;4.20;;;2.33;;
7829;SDS011;3960;51.86894000;5.39848000;2022-08-11T00:21:53;8.13;;;1.95;;
7829;SDS011;3960;51.86894000;5.39848000;2022-08-11T00:24:22;3.42;;;2.00;;
7829;SDS011;3960;51.86894000;5.39848000;2022-08-11T00:26:49;8.55;;;2.45;;
7829;SDS011;3960;51.86894000;5.39848000;2022-08-11T00:29:16;4.47;;;2.20;;
7829;SDS011;3960;51.86894000;5.39848000;2022-08-11T00:31:44;5.35;;;2.00;;
7829;SDS011;3960;51.86894000;5.39848000;2022-08-11T00:34:12;3.30;;;2.50;;
7829;SDS011;3960;51.86894000;5.39848000;2022-08-11T00:36:48;5.95;;;2.38;;
7829;SDS011;3960;51.86894000;5.39848000;2022-08-11T00:39:17;2.53;;;2.10;;
7829;SDS011;3960;51.86894000;5.39848000;2022-08-11T00:47:20;3.40;;;2.30;;
7829;SDS011;3960;51.86894000;5.39848000;2022-08-11T00:53:11;3.58;;;1.92;;
7829;SDS011;3960;51.86894000;5.39848000;2022-08-11T01:02:38;3.78;;;2.05;;
7829;SDS011;3960;51.86894000;5.39848000;2022-08-11T01:04:44;4.28;;;2.30;;
7829;SDS011;3960;51.86894000;5.39848000;2022-08-11T01:13:28;5.72;;;2.20;;
7829;SDS011;3960;51.86894000;5.39848000;2022-08-11T01:41:40;5.05;;;2.00;;
7829;SDS011;3960;51.86894000;5.39848000;2022-08-11T01:58:47;4.88;;;2.20;;
7829;SDS011;3960;51.86894000;5.39848000;2022-08-11T02:04:18;5.75;;;2.55;;
7829;SDS011;3960;51.86894000;5.39848000;2022-08-11T02:07:38;2.67;;;2.20;;
7829;SDS011;3960;51.86894000;5.39848000;2022-08-11T02:13:21;5.40;;;2.30;;
7829;SDS011;3960;51.86894000;5.39848000;2022-08-11T02:19:17;5.78;;;2.50;;
7829;SDS011;3960;51.86894000;5.39848000;2022-08-11T02:22:10;3.65;;;2.15;;
7829;SDS011;3960;51.86894000;5.39848000;2022-08-11T02:25:03;3.60;;;2.47;;
7829;SDS011;3960;51.86894000;5.39848000;2022-08-11T02:30:10;4.10;;;2.20;;
7829;SDS011;3960;51.86894000;5.39848000;2022-08-11T02:36:09;3.60;;;2.05;;
7829;SDS011;3960;51.86894000;5.39848000;2022-08-11T02:47:41;5.03;;;2.33;;
7829;SDS011;3960;51.86894000;5.39848000;2022-08-11T02:50:30;6.22;;;2.33;;
7829;SDS011;3960;51.86894000;5.39848000;2022-08-11T03:01:47;4.07;;;2.20;;
7829;SDS011;3960;51.86894000;5.39848000;2022-08-11T03:04:19;2.92;;;2.30;;
7829;SDS011;3960;51.86894000;5.39848000;2022-08-11T03:09:45;8.25;;;2.65;;
7829;SDS011;3960;51.86894000;5.39848000;2022-08-11T03:19:12;2.45;;;2.08;;
7829;SDS011;3960;51.86894000;5.39848000;2022-08-11T03:22:21;7.03;;;2.28;;
7829;SDS011;3960;51.86894000;5.39848000;2022-08-11T03:25:43;4.43;;;2.72;;
7829;SDS011;3960;51.86894000;5.39848000;2022-08-11T03:33:45;4.28;;;2.50;;
7829;SDS011;3960;51.86894000;5.39848000;2022-08-11T03:36:33;4.80;;;2.40;;
7829;SDS011;3960;51.86894000;5.39848000;2022-08-11T03:41:34;3.33;;;2.40;;
7829;SDS011;3960;51.86894000;5.39848000;2022-08-11T03:47:13;6.10;;;2.60;;
7829;SDS011;3960;51.86894000;5.39848000;2022-08-11T03:52:57;10.05;;;2.60;;
7829;SDS011;3960;51.86894000;5.39848000;2022-08-11T03:58:51;6.70;;;2.78;;
7829;SDS011;3960;51.86894000;5.39848000;2022-08-11T04:14:03;5.63;;;2.55;;
7829;SDS011;3960;51.86894000;5.39848000;2022-08-11T04:28:59;4.20;;;3.00;;
7829;SDS011;3960;51.86894000;5.39848000;2022-08-11T04:31:55;5.82;;;3.30;;
7829;SDS011;3960;51.86894000;5.39848000;2022-08-11T04:54:47;4.78;;;2.90;;
7829;SDS011;3960;51.86894000;5.39848000;2022-08-11T05:04:06;3.88;;;3.10;;
7829;SDS011;3960;51.86894000;5.39848000;2022-08-11T05:09:45;7.70;;;3.40;;
7829;SDS011;3960;51.86894000;5.39848000;2022-08-11T05:15:20;4.88;;;3.05;;
7829;SDS011;3960;51.86894000;5.39848000;2022-08-11T05:18:21;7.15;;;3.20;;
7829;SDS011;3960;51.86894000;5.39848000;2022-08-11T05:21:10;8.90;;;3.13;;
7829;SDS011;3960;51.86894000;5.39848000;2022-08-11T05:24:19;6.15;;;3.22;;
7829;SDS011;3960;51.86894000;5.39848000;2022-08-11T05:27:04;7.18;;;3.15;;
7829;SDS011;3960;51.86894000;5.39848000;2022-08-11T05:29:56;5.18;;;3.25;;
7829;SDS011;3960;51.86894000;5.39848000;2022-08-11T05:32:55;6.40;;;3.53;;
7829;SDS011;3960;51.86894000;5.39848000;2022-08-11T05:35:46;6.32;;;3.67;;
7829;SDS011;3960;51.86894000;5.39848000;2022-08-11T05:38:20;9.43;;;3.25;;
7829;SDS011;3960;51.86894000;5.39848000;2022-08-11T05:41:10;4.30;;;3.10;;
7829;SDS011;3960;51.86894000;5.39848000;2022-08-11T05:43:54;6.53;;;3.25;;
7829;SDS011;3960;51.86894000;5.39848000;2022-08-11T05:46:41;11.15;;;3.58;;
7829;SDS011;3960;51.86894000;5.39848000;2022-08-11T05:49:28;4.72;;;3.30;;
7829;SDS011;3960;51.86894000;5.39848000;2022-08-11T05:52:14;5.40;;;3.55;;
7829;SDS011;3960;51.86894000;5.39848000;2022-08-11T05:55:01;5.72;;;3.40;;
7829;SDS011;3960;51.86894000;5.39848000;2022-08-11T05:57:47;10.32;;;3.63;;
7829;SDS011;3960;51.86894000;5.39848000;2022-08-11T06:00:13;7.68;;;3.45;;
7829;SDS011;3960;51.86894000;5.39848000;2022-08-11T06:02:40;5.88;;;3.50;;
7829;SDS011;3960;51.86894000;5.39848000;2022-08-11T06:05:07;8.18;;;3.20;;
7829;SDS011;3960;51.86894000;5.39848000;2022-08-11T06:07:33;11.75;;;4.10;;
7829;SDS011;3960;51.86894000;5.39848000;2022-08-11T06:09:58;7.32;;;3.28;;
7829;SDS011;3960;51.86894000;5.39848000;2022-08-11T06:12:26;4.85;;;3.38;;
7829;SDS011;3960;51.86894000;5.39848000;2022-08-11T06:15:06;4.97;;;3.17;;
7829;SDS011;3960;51.86894000;5.39848000;2022-08-11T06:17:35;5.28;;;3.00;;
7829;SDS011;3960;51.86894000;5.39848000;2022-08-11T06:20:09;6.82;;;3.22;;
7829;SDS011;3960;51.86894000;5.39848000;2022-08-11T06:22:37;7.40;;;3.50;;
7829;SDS011;3960;51.86894000;5.39848000;2022-08-11T06:25:04;6.75;;;3.15;;
7829;SDS011;3960;51.86894000;5.39848000;2022-08-11T06:27:32;9.88;;;3.38;;
7829;SDS011;3960;51.86894000;5.39848000;2022-08-11T06:29:59;6.43;;;3.03;;
7829;SDS011;3960;51.86894000;5.39848000;2022-08-11T06:32:27;10.20;;;3.70;;
7829;SDS011;3960;51.86894000;5.39848000;2022-08-11T06:43:41;11.32;;;3.60;;
7829;SDS011;3960;51.86894000;5.39848000;2022-08-11T06:46:14;3.97;;;3.17;;
7829;SDS011;3960;51.86894000;5.39848000;2022-08-11T06:48:47;5.22;;;3.22;;
7829;SDS011;3960;51.86894000;5.39848000;2022-08-11T06:51:12;8.10;;;3.05;;
7829;SDS011;3960;51.86894000;5.39848000;2022-08-11T06:53:42;6.20;;;3.55;;
7829;SDS011;3960;51.86894000;5.39848000;2022-08-11T06:56:23;6.75;;;3.10;;
7829;SDS011;3960;51.86894000;5.39848000;2022-08-11T06:59:17;5.13;;;2.88;;
7829;SDS011;3960;51.86894000;5.39848000;2022-08-11T07:02:19;7.47;;;3.15;;
7829;SDS011;3960;51.86894000;5.39848000;2022-08-11T07:04:53;9.43;;;3.33;;
7829;SDS011;3960;51.86894000;5.39848000;2022-08-11T07:13:34;7.05;;;2.75;;
7829;SDS011;3960;51.86894000;5.39848000;2022-08-11T07:16:26;5.47;;;2.88;;
7829;SDS011;3960;51.86894000;5.39848000;2022-08-11T07:18:55;11.07;;;3.20;;
7829;SDS011;3960;51.86894000;5.39848000;2022-08-11T07:21:43;9.57;;;3.45;;
7829;SDS011;3960;51.86894000;5.39848000;2022-08-11T07:24:39;5.68;;;2.70;;
7829;SDS011;3960;51.86894000;5.39848000;2022-08-11T07:27:27;5.95;;;2.55;;
7829;SDS011;3960;51.86894000;5.39848000;2022-08-11T07:30:17;9.68;;;3.03;;
7829;SDS011;3960;51.86894000;5.39848000;2022-08-11T07:32:50;6.50;;;2.78;;
7829;SDS011;3960;51.86894000;5.39848000;2022-08-11T07:35:21;7.68;;;2.85;;
7829;SDS011;3960;51.86894000;5.39848000;2022-08-11T07:37:54;5.45;;;2.88;;
7829;SDS011;3960;51.86894000;5.39848000;2022-08-11T07:40:23;10.10;;;3.13;;
7829;SDS011;3960;51.86894000;5.39848000;2022-08-11T07:42:49;6.43;;;2.85;;
7829;SDS011;3960;51.86894000;5.39848000;2022-08-11T07:45:16;5.90;;;2.53;;
7829;SDS011;3960;51.86894000;5.39848000;2022-08-11T07:48:00;6.30;;;2.67;;
7829;SDS011;3960;51.86894000;5.39848000;2022-08-11T07:50:45;15.88;;;3.33;;
7829;SDS011;3960;51.86894000;5.39848000;2022-08-11T07:53:29;8.07;;;2.75;;
7829;SDS011;3960;51.86894000;5.39848000;2022-08-11T07:55:57;8.27;;;2.78;;
7829;SDS011;3960;51.86894000;5.39848000;2022-08-11T07:58:24;7.10;;;2.47;;
7829;SDS011;3960;51.86894000;5.39848000;2022-08-11T08:01:10;9.02;;;2.65;;
7829;SDS011;3960;51.86894000;5.39848000;2022-08-11T08:03:55;12.73;;;2.55;;
7829;SDS011;3960;51.86894000;5.39848000;2022-08-11T08:06:41;7.57;;;2.38;;
7829;SDS011;3960;51.86894000;5.39848000;2022-08-11T08:09:26;4.20;;;2.50;;
7829;SDS011;3960;51.86894000;5.39848000;2022-08-11T08:12:10;5.50;;;2.55;;
7829;SDS011;3960;51.86894000;5.39848000;2022-08-11T08:14:57;7.07;;;2.47;;
7829;SDS011;3960;51.86894000;5.39848000;2022-08-11T08:17:41;9.57;;;2.60;;
7829;SDS011;3960;51.86894000;5.39848000;2022-08-11T08:20:19;11.65;;;2.75;;
7829;SDS011;3960;51.86894000;5.39848000;2022-08-11T08:22:50;5.03;;;2.50;;
7829;SDS011;3960;51.86894000;5.39848000;2022-08-11T08:25:21;6.55;;;2.40;;
7829;SDS011;3960;51.86894000;5.39848000;2022-08-11T08:27:48;11.63;;;2.50;;
7829;SDS011;3960;51.86894000;5.39848000;2022-08-11T08:30:15;9.02;;;2.47;;
7829;SDS011;3960;51.86894000;5.39848000;2022-08-11T08:33:00;5.05;;;2.42;;
7829;SDS011;3960;51.86894000;5.39848000;2022-08-11T08:35:26;6.47;;;2.70;;
7829;SDS011;3960;51.86894000;5.39848000;2022-08-11T08:37:54;4.85;;;2.42;;
7829;SDS011;3960;51.86894000;5.39848000;2022-08-11T08:40:20;11.68;;;2.60;;
7829;SDS011;3960;51.86894000;5.39848000;2022-08-11T08:42:53;5.00;;;2.40;;
7829;SDS011;3960;51.86894000;5.39848000;2022-08-11T08:45:21;3.33;;;2.30;;
7829;SDS011;3960;51.86894000;5.39848000;2022-08-11T08:47:58;10.95;;;2.65;;
7829;SDS011;3960;51.86894000;5.39848000;2022-08-11T08:50:26;6.47;;;2.80;;
7829;SDS011;3960;51.86894000;5.39848000;2022-08-11T08:53:15;5.30;;;2.55;;
7829;SDS011;3960;51.86894000;5.39848000;2022-08-11T08:55:45;6.82;;;2.70;;
7829;SDS011;3960;51.86894000;5.39848000;2022-08-11T08:58:12;6.65;;;2.60;;
7829;SDS011;3960;51.86894000;5.39848000;2022-08-11T09:00:40;8.25;;;2.33;;
7829;SDS011;3960;51.86894000;5.39848000;2022-08-11T09:03:08;9.85;;;2.65;;
7829;SDS011;3960;51.86894000;5.39848000;2022-08-11T09:05:34;11.07;;;2.70;;
7829;SDS011;3960;51.86894000;5.39848000;2022-08-11T09:07:59;13.23;;;3.08;;
7829;SDS011;3960;51.86894000;5.39848000;2022-08-11T09:10:25;6.65;;;2.70;;
7829;SDS011;3960;51.86894000;5.39848000;2022-08-11T09:12:54;12.50;;;3.25;;
7829;SDS011;3960;51.86894000;5.39848000;2022-08-11T09:15:21;7.45;;;2.58;;
7829;SDS011;3960;51.86894000;5.39848000;2022-08-11T09:17:49;4.78;;;2.63;;
7829;SDS011;3960;51.86894000;5.39848000;2022-08-11T09:20:20;12.57;;;2.67;;
7829;SDS011;3960;51.86894000;5.39848000;2022-08-11T09:22:48;6.22;;;2.83;;
7829;SDS011;3960;51.86894000;5.39848000;2022-08-11T09:25:35;5.20;;;2.25;;
7829;SDS011;3960;51.86894000;5.39848000;2022-08-11T09:28:19;7.50;;;2.70;;
7829;SDS011;3960;51.86894000;5.39848000;2022-08-11T09:30:50;5.05;;;2.63;;
7829;SDS011;3960;51.86894000;5.39848000;2022-08-11T09:33:20;5.10;;;2.42;;
7829;SDS011;3960;51.86894000;5.39848000;2022-08-11T09:35:47;5.78;;;2.50;;
7829;SDS011;3960;51.86894000;5.39848000;2022-08-11T09:38:15;11.75;;;2.72;;
7829;SDS011;3960;51.86894000;5.39848000;2022-08-11T09:41:02;3.60;;;2.53;;
7829;SDS011;3960;51.86894000;5.39848000;2022-08-11T09:43:29;8.27;;;2.60;;
7829;SDS011;3960;51.86894000;5.39848000;2022-08-11T09:46:14;7.25;;;2.60;;
7829;SDS011;3960;51.86894000;5.39848000;2022-08-11T09:48:41;6.45;;;2.78;;
7829;SDS011;3960;51.86894000;5.39848000;2022-08-11T09:51:09;7.00;;;2.90;;
7829;SDS011;3960;51.86894000;5.39848000;2022-08-11T09:53:36;11.60;;;2.85;;
7829;SDS011;3960;51.86894000;5.39848000;2022-08-11T09:56:04;6.43;;;2.78;;
7829;SDS011;3960;51.86894000;5.39848000;2022-08-11T09:58:52;7.05;;;2.83;;
7829;SDS011;3960;51.86894000;5.39848000;2022-08-11T10:01:19;7.47;;;2.50;;
7829;SDS011;3960;51.86894000;5.39848000;2022-08-11T10:03:54;7.20;;;2.50;;
7829;SDS011;3960;51.86894000;5.39848000;2022-08-11T10:06:26;5.07;;;2.63;;
7829;SDS011;3960;51.86894000;5.39848000;2022-08-11T10:09:14;6.97;;;2.63;;
7829;SDS011;3960;51.86894000;5.39848000;2022-08-11T10:11:43;8.45;;;2.75;;
7829;SDS011;3960;51.86894000;5.39848000;2022-08-11T10:14:09;7.80;;;3.25;;
7829;SDS011;3960;51.86894000;5.39848000;2022-08-11T10:16:53;5.45;;;2.60;;
7829;SDS011;3960;51.86894000;5.39848000;2022-08-11T10:19:20;4.18;;;2.33;;
7829;SDS011;3960;51.86894000;5.39848000;2022-08-11T10:21:47;7.50;;;2.75;;
7829;SDS011;3960;51.86894000;5.39848000;2022-08-11T10:24:36;4.70;;;2.53;;
7829;SDS011;3960;51.86894000;5.39848000;2022-08-11T10:27:20;7.38;;;2.63;;
7829;SDS011;3960;51.86894000;5.39848000;2022-08-11T10:29:46;8.90;;;2.58;;
7829;SDS011;3960;51.86894000;5.39848000;2022-08-11T10:32:30;5.70;;;2.70;;
7829;SDS011;3960;51.86894000;5.39848000;2022-08-11T10:35:16;5.90;;;2.60;;
7829;SDS011;3960;51.86894000;5.39848000;2022-08-11T10:37:44;8.73;;;2.40;;
7829;SDS011;3960;51.86894000;5.39848000;2022-08-11T10:40:16;4.05;;;2.50;;
7829;SDS011;3960;51.86894000;5.39848000;2022-08-11T10:42:46;11.80;;;3.25;;
7829;SDS011;3960;51.86894000;5.39848000;2022-08-11T10:45:34;8.35;;;2.90;;
7829;SDS011;3960;51.86894000;5.39848000;2022-08-11T10:48:24;6.68;;;2.72;;
7829;SDS011;3960;51.86894000;5.39848000;2022-08-11T10:50:51;3.83;;;2.40;;
7829;SDS011;3960;51.86894000;5.39848000;2022-08-11T10:53:37;6.38;;;2.70;;
7829;SDS011;3960;51.86894000;5.39848000;2022-08-11T10:56:23;11.25;;;2.42;;
7829;SDS011;3960;51.86894000;5.39848000;2022-08-11T10:59:09;3.75;;;2.20;;
7829;SDS011;3960;51.86894000;5.39848000;2022-08-11T11:01:36;6.28;;;2.65;;
7829;SDS011;3960;51.86894000;5.39848000;2022-08-11T11:09:33;4.70;;;2.42;;
7829;SDS011;3960;51.86894000;5.39848000;2022-08-11T11:12:07;9.93;;;2.58;;
7829;SDS011;3960;51.86894000;5.39848000;2022-08-11T11:14:54;6.55;;;2.63;;
7829;SDS011;3960;51.86894000;5.39848000;2022-08-11T11:17:44;5.28;;;2.42;;
7829;SDS011;3960;51.86894000;5.39848000;2022-08-11T11:31:46;6.78;;;2.53;;
7829;SDS011;3960;51.86894000;5.39848000;2022-08-11T11:37:09;6.90;;;2.30;;
7829;SDS011;3960;51.86894000;5.39848000;2022-08-11T11:39:37;2.88;;;2.20;;
7829;SDS011;3960;51.86894000;5.39848000;2022-08-11T11:42:05;5.72;;;2.65;;
7829;SDS011;3960;51.86894000;5.39848000;2022-08-11T11:44:32;11.05;;;3.00;;
7829;SDS011;3960;51.86894000;5.39848000;2022-08-11T11:46:59;3.38;;;2.70;;
7829;SDS011;3960;51.86894000;5.39848000;2022-08-11T11:49:29;5.43;;;2.60;;
7829;SDS011;3960;51.86894000;5.39848000;2022-08-11T11:51:59;4.15;;;2.50;;
7829;SDS011;3960;51.86894000;5.39848000;2022-08-11T11:54:26;4.45;;;2.40;;
7829;SDS011;3960;51.86894000;5.39848000;2022-08-11T11:56:54;5.25;;;2.60;;
7829;SDS011;3960;51.86894000;5.39848000;2022-08-11T11:59:21;4.68;;;2.60;;
7829;SDS011;3960;51.86894000;5.39848000;2022-08-11T12:02:07;4.50;;;2.42;;
7829;SDS011;3960;51.86894000;5.39848000;2022-08-11T12:04:33;6.20;;;2.65;;
7829;SDS011;3960;51.86894000;5.39848000;2022-08-11T12:07:02;4.53;;;2.70;;
7829;SDS011;3960;51.86894000;5.39848000;2022-08-11T12:09:47;4.35;;;2.75;;
7829;SDS011;3960;51.86894000;5.39848000;2022-08-11T12:12:13;7.57;;;2.50;;
7829;SDS011;3960;51.86894000;5.39848000;2022-08-11T12:14:57;5.68;;;2.65;;
7829;SDS011;3960;51.86894000;5.39848000;2022-08-11T12:17:22;4.57;;;2.60;;
7829;SDS011;3960;51.86894000;5.39848000;2022-08-11T12:19:48;5.80;;;2.85;;
7829;SDS011;3960;51.86894000;5.39848000;2022-08-11T12:22:14;5.28;;;2.70;;
7829;SDS011;3960;51.86894000;5.39848000;2022-08-11T12:24:59;9.05;;;2.85;;
7829;SDS011;3960;51.86894000;5.39848000;2022-08-11T12:27:44;5.18;;;2.40;;
7829;SDS011;3960;51.86894000;5.39848000;2022-08-11T12:30:10;4.55;;;2.60;;
7829;SDS011;3960;51.86894000;5.39848000;2022-08-11T12:32:37;6.75;;;2.28;;
7829;SDS011;3960;51.86894000;5.39848000;2022-08-11T12:35:04;4.78;;;2.60;;
7829;SDS011;3960;51.86894000;5.39848000;2022-08-11T12:37:31;7.25;;;2.60;;
7829;SDS011;3960;51.86894000;5.39848000;2022-08-11T12:40:00;5.72;;;2.85;;
7829;SDS011;3960;51.86894000;5.39848000;2022-08-11T12:42:46;5.28;;;2.60;;
7829;SDS011;3960;51.86894000;5.39848000;2022-08-11T12:45:30;2.90;;;2.30;;
7829;SDS011;3960;51.86894000;5.39848000;2022-08-11T12:51:06;4.10;;;2.40;;
7829;SDS011;3960;51.86894000;5.39848000;2022-08-11T12:53:58;7.55;;;2.67;;
7829;SDS011;3960;51.86894000;5.39848000;2022-08-11T12:56:27;10.98;;;2.50;;
7829;SDS011;3960;51.86894000;5.39848000;2022-08-11T12:59:19;8.52;;;2.47;;
7829;SDS011;3960;51.86894000;5.39848000;2022-08-11T13:02:04;4.03;;;2.50;;
7829;SDS011;3960;51.86894000;5.39848000;2022-08-11T13:04:48;4.45;;;2.55;;
7829;SDS011;3960;51.86894000;5.39848000;2022-08-11T13:07:20;5.03;;;2.42;;
7829;SDS011;3960;51.86894000;5.39848000;2022-08-11T13:09:46;10.48;;;2.40;;
7829;SDS011;3960;51.86894000;5.39848000;2022-08-11T13:12:12;3.28;;;2.40;;
7829;SDS011;3960;51.86894000;5.39848000;2022-08-11T13:14:58;5.60;;;2.70;;
7829;SDS011;3960;51.86894000;5.39848000;2022-08-11T13:17:24;4.88;;;2.17;;
7829;SDS011;3960;51.86894000;5.39848000;2022-08-11T13:19:51;5.53;;;2.47;;
7829;SDS011;3960;51.86894000;5.39848000;2022-08-11T13:22:17;9.68;;;2.65;;
7829;SDS011;3960;51.86894000;5.39848000;2022-08-11T13:24:44;4.72;;;2.33;;
7829;SDS011;3960;51.86894000;5.39848000;2022-08-11T13:27:10;4.60;;;2.38;;
7829;SDS011;3960;51.86894000;5.39848000;2022-08-11T13:29:40;14.13;;;2.38;;
7829;SDS011;3960;51.86894000;5.39848000;2022-08-11T13:32:06;3.92;;;2.28;;
7829;SDS011;3960;51.86894000;5.39848000;2022-08-11T13:34:32;6.78;;;2.40;;
7829;SDS011;3960;51.86894000;5.39848000;2022-08-11T13:37:05;3.33;;;2.40;;
7829;SDS011;3960;51.86894000;5.39848000;2022-08-11T13:39:31;4.85;;;2.20;;
7829;SDS011;3960;51.86894000;5.39848000;2022-08-11T13:41:59;6.38;;;2.53;;
7829;SDS011;3960;51.86894000;5.39848000;2022-08-11T13:44:26;5.00;;;2.38;;
7829;SDS011;3960;51.86894000;5.39848000;2022-08-11T13:46:57;6.05;;;2.25;;
7829;SDS011;3960;51.86894000;5.39848000;2022-08-11T13:49:25;6.53;;;2.38;;
7829;SDS011;3960;51.86894000;5.39848000;2022-08-11T13:51:51;6.57;;;2.35;;
7829;SDS011;3960;51.86894000;5.39848000;2022-08-11T13:54:22;5.43;;;2.22;;
7829;SDS011;3960;51.86894000;5.39848000;2022-08-11T13:56:53;3.28;;;2.40;;
7829;SDS011;3960;51.86894000;5.39848000;2022-08-11T13:59:20;4.95;;;2.75;;
7829;SDS011;3960;51.86894000;5.39848000;2022-08-11T14:01:48;4.85;;;2.45;;
7829;SDS011;3960;51.86894000;5.39848000;2022-08-11T14:04:27;5.00;;;2.40;;
7829;SDS011;3960;51.86894000;5.39848000;2022-08-11T14:06:57;5.30;;;2.40;;
7829;SDS011;3960;51.86894000;5.39848000;2022-08-11T14:09:27;8.23;;;2.40;;
7829;SDS011;3960;51.86894000;5.39848000;2022-08-11T14:11:59;6.20;;;2.30;;
7829;SDS011;3960;51.86894000;5.39848000;2022-08-11T14:14:46;4.65;;;2.40;;
7829;SDS011;3960;51.86894000;5.39848000;2022-08-11T14:17:15;3.55;;;2.10;;
7829;SDS011;3960;51.86894000;5.39848000;2022-08-11T14:19:43;3.30;;;2.10;;
7829;SDS011;3960;51.86894000;5.39848000;2022-08-11T14:22:12;4.50;;;2.25;;
7829;SDS011;3960;51.86894000;5.39848000;2022-08-11T14:24:40;4.75;;;2.22;;
7829;SDS011;3960;51.86894000;5.39848000;2022-08-11T14:27:08;2.55;;;2.10;;
7829;SDS011;3960;51.86894000;5.39848000;2022-08-11T14:29:36;5.70;;;2.45;;
7829;SDS011;3960;51.86894000;5.39848000;2022-08-11T14:32:04;4.25;;;2.25;;
7829;SDS011;3960;51.86894000;5.39848000;2022-08-11T14:34:31;3.72;;;2.30;;
7829;SDS011;3960;51.86894000;5.39848000;2022-08-11T14:39:55;3.85;;;2.60;;
7829;SDS011;3960;51.86894000;5.39848000;2022-08-11T14:42:23;2.95;;;2.10;;
7829;SDS011;3960;51.86894000;5.39848000;2022-08-11T14:47:53;5.03;;;2.20;;
7829;SDS011;3960;51.86894000;5.39848000;2022-08-11T14:50:25;5.50;;;2.30;;
7829;SDS011;3960;51.86894000;5.39848000;2022-08-11T14:53:02;4.00;;;2.20;;
7829;SDS011;3960;51.86894000;5.39848000;2022-08-11T14:55:31;5.75;;;2.08;;
7829;SDS011;3960;51.86894000;5.39848000;2022-08-11T14:58:19;3.05;;;1.95;;
7829;SDS011;3960;51.86894000;5.39848000;2022-08-11T15:00:49;6.38;;;2.20;;
7829;SDS011;3960;51.86894000;5.39848000;2022-08-11T15:03:17;2.53;;;1.93;;
7829;SDS011;3960;51.86894000;5.39848000;2022-08-11T15:05:47;6.47;;;2.00;;
7829;SDS011;3960;51.86894000;5.39848000;2022-08-11T15:08:15;4.00;;;2.08;;
7829;SDS011;3960;51.86894000;5.39848000;2022-08-11T15:10:41;5.88;;;2.30;;
7829;SDS011;3960;51.86894000;5.39848000;2022-08-11T15:13:07;7.90;;;2.40;;
7829;SDS011;3960;51.86894000;5.39848000;2022-08-11T15:15:34;7.20;;;2.30;;
7829;SDS011;3960;51.86894000;5.39848000;2022-08-11T15:18:19;7.07;;;2.00;;
7829;SDS011;3960;51.86894000;5.39848000;2022-08-11T15:20:48;4.43;;;2.10;;
7829;SDS011;3960;51.86894000;5.39848000;2022-08-11T15:23:32;3.42;;;2.30;;
7829;SDS011;3960;51.86894000;5.39848000;2022-08-11T15:26:38;6.43;;;2.42;;
7829;SDS011;3960;51.86894000;5.39848000;2022-08-11T15:29:23;5.05;;;2.25;;
7829;SDS011;3960;51.86894000;5.39848000;2022-08-11T15:32:10;5.72;;;2.75;;
7829;SDS011;3960;51.86894000;5.39848000;2022-08-11T15:34:48;5.20;;;2.17;;
7829;SDS011;3960;51.86894000;5.39848000;2022-08-11T15:37:35;5.68;;;2.17;;
7829;SDS011;3960;51.86894000;5.39848000;2022-08-11T15:40:12;3.28;;;2.25;;
7829;SDS011;3960;51.86894000;5.39848000;2022-08-11T15:46:07;3.97;;;2.05;;
7829;SDS011;3960;51.86894000;5.39848000;2022-08-11T15:48:43;5.78;;;2.25;;
7829;SDS011;3960;51.86894000;5.39848000;2022-08-11T15:54:02;6.60;;;1.92;;
7829;SDS011;3960;51.86894000;5.39848000;2022-08-11T15:56:32;5.20;;;2.25;;
7829;SDS011;3960;51.86894000;5.39848000;2022-08-11T15:59:01;4.28;;;2.20;;
7829;SDS011;3960;51.86894000;5.39848000;2022-08-11T16:01:47;8.30;;;2.28;;
7829;SDS011;3960;51.86894000;5.39848000;2022-08-11T16:04:32;3.50;;;2.33;;
7829;SDS011;3960;51.86894000;5.39848000;2022-08-11T16:07:01;2.70;;;2.17;;
7829;SDS011;3960;51.86894000;5.39848000;2022-08-11T16:12:34;8.57;;;2.40;;
7829;SDS011;3960;51.86894000;5.39848000;2022-08-11T16:15:04;6.72;;;2.15;;
7829;SDS011;3960;51.86894000;5.39848000;2022-08-11T16:17:51;4.50;;;2.20;;
7829;SDS011;3960;51.86894000;5.39848000;2022-08-11T16:20:21;2.50;;;2.10;;
7829;SDS011;3960;51.86894000;5.39848000;2022-08-11T16:22:48;5.88;;;2.30;;
7829;SDS011;3960;51.86894000;5.39848000;2022-08-11T16:25:17;4.68;;;2.35;;
7829;SDS011;3960;51.86894000;5.39848000;2022-08-11T16:30:15;2.60;;;2.05;;
7829;SDS011;3960;51.86894000;5.39848000;2022-08-11T16:32:41;6.05;;;2.10;;
7829;SDS011;3960;51.86894000;5.39848000;2022-08-11T16:35:10;3.03;;;2.13;;
7829;SDS011;3960;51.86894000;5.39848000;2022-08-11T16:37:58;4.88;;;2.15;;
7829;SDS011;3960;51.86894000;5.39848000;2022-08-11T16:40:44;11.82;;;7.38;;
7829;SDS011;3960;51.86894000;5.39848000;2022-08-11T16:43:14;14.73;;;9.25;;
7829;SDS011;3960;51.86894000;5.39848000;2022-08-11T16:45:59;8.07;;;3.15;;
7829;SDS011;3960;51.86894000;5.39848000;2022-08-11T16:48:47;6.32;;;2.40;;
7829;SDS011;3960;51.86894000;5.39848000;2022-08-11T16:51:14;5.18;;;2.58;;
7829;SDS011;3960;51.86894000;5.39848000;2022-08-11T16:53:43;7.50;;;2.45;;
7829;SDS011;3960;51.86894000;5.39848000;2022-08-11T16:56:10;2.55;;;2.03;;
7829;SDS011;3960;51.86894000;5.39848000;2022-08-11T16:58:40;6.45;;;2.20;;
7829;SDS011;3960;51.86894000;5.39848000;2022-08-11T17:01:26;3.42;;;2.38;;
7829;SDS011;3960;51.86894000;5.39848000;2022-08-11T17:03:56;7.82;;;2.33;;
7829;SDS011;3960;51.86894000;5.39848000;2022-08-11T17:06:49;11.00;;;2.25;;
7829;SDS011;3960;51.86894000;5.39848000;2022-08-11T17:09:35;6.63;;;2.35;;
7829;SDS011;3960;51.86894000;5.39848000;2022-08-11T17:12:20;3.63;;;2.10;;
7829;SDS011;3960;51.86894000;5.39848000;2022-08-11T17:15:15;8.85;;;2.17;;
7829;SDS011;3960;51.86894000;5.39848000;2022-08-11T17:18:01;6.05;;;2.38;;
7829;SDS011;3960;51.86894000;5.39848000;2022-08-11T17:20:31;9.60;;;2.33;;
7829;SDS011;3960;51.86894000;5.39848000;2022-08-11T17:22:58;3.15;;;2.30;;
7829;SDS011;3960;51.86894000;5.39848000;2022-08-11T17:26:01;7.90;;;2.45;;
7829;SDS011;3960;51.86894000;5.39848000;2022-08-11T17:28:26;8.95;;;2.30;;
7829;SDS011;3960;51.86894000;5.39848000;2022-08-11T17:30:53;5.00;;;2.15;;
7829;SDS011;3960;51.86894000;5.39848000;2022-08-11T17:33:38;7.20;;;3.00;;
7829;SDS011;3960;51.86894000;5.39848000;2022-08-11T17:36:21;7.28;;;4.35;;
7829;SDS011;3960;51.86894000;5.39848000;2022-08-11T17:38:48;12.52;;;3.75;;
7829;SDS011;3960;51.86894000;5.39848000;2022-08-11T17:41:14;4.93;;;2.88;;
7829;SDS011;3960;51.86894000;5.39848000;2022-08-11T17:43:59;4.88;;;2.22;;
7829;SDS011;3960;51.86894000;5.39848000;2022-08-11T17:46:45;3.60;;;2.03;;
7829;SDS011;3960;51.86894000;5.39848000;2022-08-11T17:49:31;6.60;;;2.65;;
7829;SDS011;3960;51.86894000;5.39848000;2022-08-11T17:52:01;5.50;;;2.58;;